Time;durP1;ratioP1;P1;durP2;ratioP2;P2;SDS_P1;SDS_P2;PMS_P1;PMS_P2;Temp;Humidity;BMP_temperature;BMP_pressure;BME280_temperature;BME280_humidity;BME280_pressure;Samples;Min_cycle;Max_cycle;Signal;HPM_P1;HPM_P2
2022/12/10 00:01:49;;;;;;;2.00;1.80;;;-0.20;98.20;;;;;;5021298;28;20573;-73
2022/12/10 00:04:17;;;;;;;1.90;1.70;;;-0.20;98.20;;;;;;5033492;28;20493;-72
2022/12/10 00:06:46;;;;;;;2.00;1.80;;;-0.20;98.20;;;;;;5021348;28;20479;-74
2022/12/10 00:09:15;;;;;;;1.90;1.73;;;-0.20;98.20;;;;;;5034121;28;21097;-73
2022/12/10 00:11:42;;;;;;;2.00;1.80;;;-0.30;98.20;;;;;;5022803;28;20479;-71
2022/12/10 00:14:11;;;;;;;1.80;1.70;;;-0.30;98.20;;;;;;5025212;28;20969;-71
2022/12/10 00:16:38;;;;;;;2.00;1.80;;;-0.30;98.20;;;;;;5021453;28;20471;-71
2022/12/10 00:19:06;;;;;;;1.90;1.70;;;-0.40;98.20;;;;;;5031939;28;20486;-71
2022/12/10 00:21:36;;;;;;;6.17;4.57;;;-0.30;98.20;;;;;;5020143;28;20562;-71
2022/12/10 00:24:05;;;;;;;2.00;1.80;;;-0.30;98.20;;;;;;5035599;28;20494;-71
2022/12/10 00:26:34;;;;;;;1.83;1.70;;;-0.30;98.20;;;;;;5021024;28;20474;-71
2022/12/10 00:29:03;;;;;;;1.83;1.70;;;-0.40;98.20;;;;;;5033246;28;20485;-71
2022/12/10 00:31:33;;;;;;;2.10;1.90;;;-0.40;98.20;;;;;;5021690;28;20485;-71
2022/12/10 00:34:03;;;;;;;1.93;1.80;;;-0.40;98.20;;;;;;5035803;28;20764;-71
2022/12/10 00:36:35;;;;;;;1.90;1.70;;;-0.50;98.20;;;;;;5021088;28;20473;-71
2022/12/10 00:39:03;;;;;;;1.83;1.73;;;-0.50;98.20;;;;;;5035454;28;20499;-71
2022/12/10 00:41:31;;;;;;;1.80;1.70;;;-0.60;98.20;;;;;;5017915;28;20487;-71
2022/12/10 00:43:57;;;;;;;1.80;1.70;;;-0.60;98.20;;;;;;5038897;28;20483;-72
2022/12/10 00:46:24;;;;;;;2.13;1.93;;;-0.60;98.20;;;;;;5021542;28;20482;-71
2022/12/10 00:48:53;;;;;;;1.80;1.70;;;-0.60;98.20;;;;;;5033770;28;20483;-71
2022/12/10 00:51:21;;;;;;;1.90;1.70;;;-0.60;98.20;;;;;;5021676;28;20478;-71
2022/12/10 00:53:51;;;;;;;2.00;1.80;;;-0.70;98.20;;;;;;5038010;28;20882;-71
2022/12/10 00:56:20;;;;;;;1.80;1.70;;;-0.70;98.20;;;;;;5018524;28;20486;-71
2022/12/10 00:58:49;;;;;;;1.97;1.80;;;-0.80;98.20;;;;;;5034105;28;20491;-71
2022/12/10 01:01:18;;;;;;;2.00;1.80;;;-0.80;98.20;;;;;;5019882;28;21043;-70
2022/12/10 01:03:46;;;;;;;2.10;1.90;;;-0.80;98.20;;;;;;5032399;28;20483;-72
2022/12/10 01:06:16;;;;;;;2.00;1.80;;;-0.80;98.20;;;;;;5016038;28;20487;-72
2022/12/10 01:08:43;;;;;;;2.00;1.80;;;-0.80;98.20;;;;;;5034987;28;20510;-71
2022/12/10 01:11:15;;;;;;;1.90;1.80;;;-0.90;98.20;;;;;;5020147;28;20510;-71
2022/12/10 01:13:43;;;;;;;2.00;1.80;;;-0.90;98.20;;;;;;5036336;28;20826;-71
2022/12/10 01:16:13;;;;;;;1.90;1.70;;;-0.90;98.20;;;;;;5013634;28;20802;-71
2022/12/10 01:18:41;;;;;;;1.83;1.70;;;-0.90;98.20;;;;;;5034752;28;21012;-71
2022/12/10 01:21:09;;;;;;;1.80;1.70;;;-0.90;98.20;;;;;;5017948;28;20757;-71
2022/12/10 01:23:38;;;;;;;2.00;1.80;;;-0.90;98.20;;;;;;5036788;28;20483;-71
2022/12/10 01:26:13;;;;;;;2.83;2.63;;;-0.90;98.20;;;;;;5020644;28;20474;-72
2022/12/10 01:28:44;;;;;;;1.80;1.70;;;-0.90;98.20;;;;;;5033513;28;20492;-71
2022/12/10 01:31:14;;;;;;;1.93;1.80;;;-0.90;98.20;;;;;;5014972;28;20493;-71
2022/12/10 01:33:42;;;;;;;2.00;1.80;;;-0.90;98.20;;;;;;5035236;28;20774;-71
2022/12/10 01:36:10;;;;;;;1.80;1.70;;;-0.90;98.20;;;;;;5013412;28;20492;-71
2022/12/10 01:38:38;;;;;;;2.10;1.90;;;-1.00;98.20;;;;;;5035217;28;21140;-71
2022/12/10 01:41:05;;;;;;;1.87;1.70;;;-1.00;98.20;;;;;;5018671;28;20956;-71
2022/12/10 01:43:53;;;;;;;1.90;1.80;;;-1.00;98.20;;;;;;5029749;28;20519;-71
2022/12/10 01:46:23;;;;;;;1.83;1.70;;;-1.00;98.20;;;;;;5016499;28;20482;-71
2022/12/10 01:48:50;;;;;;;2.10;1.90;;;-1.10;98.20;;;;;;5034601;28;20483;-71
2022/12/10 01:51:18;;;;;;;1.90;1.70;;;-1.10;98.20;;;;;;5017261;28;20487;-71
2022/12/10 01:53:46;;;;;;;1.97;1.80;;;-1.10;98.20;;;;;;5035886;28;20459;-71
2022/12/10 01:56:16;;;;;;;2.00;1.80;;;-1.10;98.20;;;;;;5019507;28;20487;-71
2022/12/10 01:58:45;;;;;;;1.97;1.80;;;-1.10;98.20;;;;;;5034165;28;20491;-71
2022/12/10 02:01:21;;;;;;;2.10;1.90;;;-1.10;98.20;;;;;;5014766;28;20929;-71
2022/12/10 02:03:59;;;;;;;1.93;1.80;;;-1.10;98.20;;;;;;5035663;28;20486;-71
2022/12/10 02:06:38;;;;;;;1.93;1.80;;;-1.10;98.20;;;;;;5022919;28;20565;-71
2022/12/10 02:09:13;;;;;;;2.20;2.00;;;-1.20;98.20;;;;;;5033256;28;21142;-71
2022/12/10 02:11:45;;;;;;;2.00;1.80;;;-1.20;98.20;;;;;;5021948;28;20881;-71
2022/12/10 02:14:19;;;;;;;1.80;1.70;;;-1.20;98.20;;;;;;5035415;28;20843;-71
2022/12/10 02:16:54;;;;;;;1.93;1.80;;;-1.20;98.20;;;;;;5021505;28;20482;-72
2022/12/10 02:19:27;;;;;;;1.97;1.80;;;-1.20;98.20;;;;;;5033715;28;20486;-72
2022/12/10 02:21:56;;;;;;;1.93;1.80;;;-1.20;98.20;;;;;;5023570;28;20796;-71
2022/12/10 02:24:28;;;;;;;2.00;1.80;;;-1.30;98.20;;;;;;5032855;28;20948;-72
2022/12/10 02:27:03;;;;;;;1.80;1.70;;;-1.30;98.20;;;;;;5024440;28;20834;-71
2022/12/10 02:29:35;;;;;;;1.90;1.80;;;-1.30;98.20;;;;;;5034893;28;20506;-71
2022/12/10 02:32:07;;;;;;;1.90;1.80;;;-1.30;98.20;;;;;;5028038;28;20477;-71
2022/12/10 02:34:39;;;;;;;1.93;1.80;;;-1.30;98.20;;;;;;5035220;28;20497;-71
2022/12/10 02:37:12;;;;;;;1.83;1.70;;;-1.40;98.20;;;;;;5028273;28;20485;-71
2022/12/10 02:39:43;;;;;;;2.00;1.80;;;-1.40;98.20;;;;;;5032879;28;20482;-71
2022/12/10 02:42:14;;;;;;;1.83;1.70;;;-1.40;98.20;;;;;;5023895;28;20974;-71
2022/12/10 02:44:45;;;;;;;1.90;1.80;;;-1.40;98.20;;;;;;5032875;28;20487;-71
2022/12/10 02:47:13;;;;;;;1.87;1.73;;;-1.40;98.20;;;;;;5027623;28;20979;-72
2022/12/10 02:49:42;;;;;;;2.00;1.80;;;-1.40;98.20;;;;;;5032048;28;21007;-72
2022/12/10 02:52:10;;;;;;;1.93;1.80;;;-1.40;98.20;;;;;;5019507;28;20470;-71
2022/12/10 02:54:43;;;;;;;1.90;1.80;;;-1.30;98.20;;;;;;5031380;28;20746;-72
2022/12/10 02:57:34;;;;;;;1.90;1.80;;;-1.30;98.20;;;;;;5030665;28;20994;-71
2022/12/10 03:00:16;;;;;;;16.87;15.57;;;-1.30;98.20;;;;;;5034628;28;20493;-72
2022/12/10 03:02:52;;;;;;;2.10;1.90;;;-1.20;98.20;;;;;;5039592;28;20521;-71
2022/12/10 03:05:28;;;;;;;2.10;1.90;;;-1.10;98.20;;;;;;5030500;28;20459;-72
2022/12/10 03:08:03;;;;;;;1.80;1.70;;;-1.10;98.20;;;;;;5037724;28;20477;-71
2022/12/10 03:10:34;;;;;;;1.80;1.70;;;-1.00;98.20;;;;;;5030141;28;21004;-71
2022/12/10 03:13:05;;;;;;;1.80;1.70;;;-0.90;98.20;;;;;;5037381;28;20500;-72
2022/12/10 03:15:36;;;;;;;1.83;1.70;;;-0.80;98.20;;;;;;5026856;28;20466;-72
2022/12/10 03:18:05;;;;;;;1.80;1.70;;;-0.70;98.20;;;;;;5031457;28;21079;-71
2022/12/10 03:20:33;;;;;;;1.80;1.70;;;-0.70;98.20;;;;;;5027955;28;20458;-72
2022/12/10 03:23:02;;;;;;;1.80;1.70;;;-0.60;98.20;;;;;;5032609;28;20482;-72
2022/12/10 03:25:31;;;;;;;1.80;1.70;;;-0.60;98.20;;;;;;5029863;28;21003;-71
2022/12/10 03:28:00;;;;;;;1.83;1.70;;;-0.50;98.20;;;;;;5030360;28;20994;-72
2022/12/10 03:30:27;;;;;;;1.70;1.60;;;-0.50;98.20;;;;;;5028446;28;20456;-71
2022/12/10 03:32:56;;;;;;;2.00;1.80;;;-0.40;98.20;;;;;;5033604;28;21037;-72
2022/12/10 03:35:25;;;;;;;1.80;1.70;;;-0.40;98.20;;;;;;5029961;28;20462;-71
2022/12/10 03:37:53;;;;;;;1.97;1.80;;;-0.30;98.20;;;;;;5030918;28;20486;-72
2022/12/10 03:40:23;;;;;;;1.87;1.70;;;-0.30;98.20;;;;;;5030546;28;20475;-71
2022/12/10 03:42:52;;;;;;;1.90;1.70;;;-0.30;98.20;;;;;;5033741;28;20478;-72
2022/12/10 03:45:19;;;;;;;1.80;1.70;;;-0.20;98.20;;;;;;5029666;28;21041;-72
2022/12/10 03:47:49;;;;;;;1.70;1.60;;;-0.20;98.20;;;;;;5022992;28;20487;-72
2022/12/10 03:50:18;;;;;;;2.00;1.80;;;-0.10;98.20;;;;;;5029386;28;20489;-72
2022/12/10 03:52:45;;;;;;;2.00;1.80;;;-0.10;98.20;;;;;;5032900;28;20482;-72
2022/12/10 03:55:12;;;;;;;1.80;1.70;;;-0.10;98.20;;;;;;5029077;28;20459;-72
2022/12/10 03:57:40;;;;;;;1.70;1.60;;;0.00;98.20;;;;;;5027026;28;20478;-72
2022/12/10 04:00:08;;;;;;;1.80;1.70;;;0.00;98.20;;;;;;5035620;28;20951;-72
2022/12/10 04:02:35;;;;;;;1.70;1.60;;;0.00;98.20;;;;;;5030925;28;20475;-72
2022/12/10 04:05:02;;;;;;;1.80;1.70;;;0.00;98.20;;;;;;5028117;28;20479;-72
2022/12/10 04:07:30;;;;;;;2.00;1.80;;;0.00;98.20;;;;;;5026620;28;20494;-72
2022/12/10 04:09:57;;;;;;;1.90;1.70;;;0.00;98.20;;;;;;5029168;28;20688;-72
2022/12/10 04:12:23;;;;;;;1.80;1.70;;;0.10;98.20;;;;;;5028816;28;20561;-72
2022/12/10 04:17:32;;;;;;;1.97;1.77;;;0.10;98.20;;;;;;4989798;28;20569;-72
2022/12/10 04:19:59;;;;;;;1.90;1.70;;;0.10;98.20;;;;;;5028446;28;20538;-71
2022/12/10 04:27:59;;;;;;;1.90;1.70;;;0.10;98.20;;;;;;5026667;28;20490;-72
2022/12/10 04:30:26;;;;;;;1.70;1.60;;;0.10;98.20;;;;;;5027659;28;20564;-72
2022/12/10 04:32:52;;;;;;;1.70;1.60;;;0.10;98.20;;;;;;5029654;28;20494;-72
2022/12/10 04:35:19;;;;;;;1.90;1.70;;;0.20;98.20;;;;;;5028447;28;20596;-72
2022/12/10 04:37:46;;;;;;;2.30;2.10;;;0.20;98.20;;;;;;5028573;28;20482;-72
2022/12/10 04:40:14;;;;;;;1.70;1.60;;;0.10;98.20;;;;;;5028468;28;20483;-72
2022/12/10 04:42:41;;;;;;;1.90;1.70;;;0.10;98.20;;;;;;5024391;28;20486;-73
2022/12/10 04:45:08;;;;;;;1.80;1.70;;;0.10;98.20;;;;;;5028694;28;20515;-73
2022/12/10 04:47:35;;;;;;;1.87;1.70;;;0.10;98.20;;;;;;5023231;28;20848;-72
2022/12/10 04:50:02;;;;;;;1.87;1.70;;;0.10;98.20;;;;;;5022095;28;20510;-72
2022/12/10 04:52:29;;;;;;;1.70;1.60;;;0.10;98.20;;;;;;5029118;28;20881;-72
2022/12/10 04:54:55;;;;;;;1.90;1.70;;;0.10;98.20;;;;;;5030142;28;20462;-72
2022/12/10 04:57:23;;;;;;;1.70;1.60;;;0.10;98.20;;;;;;5026554;28;20482;-72
2022/12/10 04:59:50;;;;;;;1.70;1.60;;;0.20;98.20;;;;;;5029115;28;21359;-72
2022/12/10 05:02:17;;;;;;;1.70;1.60;;;0.10;98.20;;;;;;5031463;28;20485;-72
2022/12/10 05:04:44;;;;;;;1.70;1.60;;;0.10;98.20;;;;;;5030595;28;20486;-72
2022/12/10 05:07:11;;;;;;;1.90;1.73;;;0.10;98.20;;;;;;5024086;28;20474;-72
2022/12/10 05:09:38;;;;;;;1.70;1.60;;;0.10;98.20;;;;;;5031959;28;20850;-72
2022/12/10 05:12:06;;;;;;;1.70;1.60;;;0.10;98.20;;;;;;5025920;28;20474;-72
2022/12/10 05:14:34;;;;;;;1.73;1.60;;;0.10;98.20;;;;;;5024555;28;20953;-72
2022/12/10 05:17:01;;;;;;;1.70;1.60;;;0.10;98.20;;;;;;5025210;28;20471;-72
2022/12/10 05:19:28;;;;;;;1.83;1.70;;;0.10;98.20;;;;;;5032794;28;20483;-72
2022/12/10 05:24:39;;;;;;;1.70;1.60;;;0.10;98.20;;;;;;5031007;28;20493;-72
2022/12/10 05:27:06;;;;;;;1.83;1.70;;;0.20;98.20;;;;;;5025239;28;20485;-72
2022/12/10 05:29:34;;;;;;;1.80;1.70;;;0.20;98.20;;;;;;5033738;28;20483;-71
2022/12/10 05:32:03;;;;;;;1.70;1.60;;;0.20;98.20;;;;;;5023334;28;20512;-72
2022/12/10 05:34:30;;;;;;;2.20;2.00;;;0.20;98.20;;;;;;5018672;28;20486;-72
2022/12/10 05:36:57;;;;;;;1.70;1.60;;;0.20;98.20;;;;;;5020223;28;20490;-72
2022/12/10 05:39:23;;;;;;;5.33;4.13;;;0.20;98.20;;;;;;5029218;28;20518;-72
2022/12/10 05:41:50;;;;;;;1.70;1.60;;;0.20;98.20;;;;;;5013074;28;21012;-72
2022/12/10 05:44:17;;;;;;;2.00;1.80;;;0.20;98.20;;;;;;5022763;28;20487;-72
2022/12/10 05:46:45;;;;;;;1.70;1.60;;;0.30;98.20;;;;;;5009884;28;20479;-72
2022/12/10 05:49:12;;;;;;;1.70;1.60;;;0.30;98.20;;;;;;5022372;28;20490;-74
2022/12/10 05:51:39;;;;;;;1.87;1.70;;;0.40;98.20;;;;;;5012702;28;20849;-73
2022/12/10 05:54:08;;;;;;;3.20;2.90;;;0.40;98.20;;;;;;5025895;28;20779;-73
2022/12/10 05:56:36;;;;;;;1.90;1.70;;;0.40;98.20;;;;;;5009821;28;20558;-73
2022/12/10 05:59:04;;;;;;;1.70;1.60;;;0.40;98.20;;;;;;5015823;28;20518;-72
2022/12/10 06:01:33;;;;;;;2.00;1.80;;;0.40;98.20;;;;;;5013528;28;20478;-75
2022/12/10 06:04:03;;;;;;;1.83;1.70;;;0.50;98.20;;;;;;5027655;28;20491;-72
2022/12/10 06:06:32;;;;;;;1.70;1.60;;;0.50;98.20;;;;;;5008844;28;20475;-73
2022/12/10 06:08:59;;;;;;;1.83;1.70;;;0.50;98.20;;;;;;5024857;28;20471;-72
2022/12/10 06:11:27;;;;;;;1.70;1.60;;;0.50;98.20;;;;;;5015955;28;20792;-72
2022/12/10 06:13:55;;;;;;;1.70;1.60;;;0.40;98.20;;;;;;5026994;28;20555;-72
2022/12/10 06:16:22;;;;;;;1.70;1.60;;;0.40;98.20;;;;;;5021469;28;20478;-72
2022/12/10 06:18:49;;;;;;;1.70;1.50;;;0.30;98.20;;;;;;5029304;28;20480;-72
2022/12/10 06:21:18;;;;;;;1.70;1.50;;;0.20;98.20;;;;;;5011850;28;20955;-72
2022/12/10 06:23:45;;;;;;;1.83;1.73;;;0.20;98.20;;;;;;5027754;28;20542;-72
2022/12/10 06:26:15;;;;;;;1.70;1.60;;;0.20;98.20;;;;;;5012362;28;20467;-73
2022/12/10 06:28:42;;;;;;;1.70;1.50;;;0.20;98.20;;;;;;5021725;28;20480;-72
2022/12/10 06:31:10;;;;;;;1.70;1.60;;;0.20;98.20;;;;;;5017340;28;20496;-72
2022/12/10 06:33:38;;;;;;;1.90;1.70;;;0.20;98.20;;;;;;5032321;28;20456;-72
2022/12/10 06:36:07;;;;;;;1.70;1.60;;;0.20;98.20;;;;;;5013269;28;20460;-73
2022/12/10 06:38:35;;;;;;;1.70;1.60;;;0.20;98.20;;;;;;5026796;28;20491;-72
2022/12/10 06:41:06;;;;;;;1.70;1.60;;;0.20;98.20;;;;;;5011925;28;20469;-72
2022/12/10 06:43:32;;;;;;;1.70;1.53;;;0.30;98.20;;;;;;5027363;28;20878;-75
2022/12/10 06:45:59;;;;;;;1.70;1.60;;;0.30;98.20;;;;;;5011224;28;20494;-72
2022/12/10 06:48:26;;;;;;;1.70;1.60;;;0.30;98.20;;;;;;5037532;28;20490;-73
2022/12/10 06:50:52;;;;;;;1.70;1.60;;;0.40;98.20;;;;;;5012680;28;20951;-73
2022/12/10 06:53:20;;;;;;;1.70;1.60;;;0.40;98.20;;;;;;5029683;28;20470;-72
2022/12/10 06:55:48;;;;;;;1.80;1.70;;;0.40;98.20;;;;;;5019598;28;20464;-73
2022/12/10 06:58:15;;;;;;;1.70;1.60;;;0.40;98.20;;;;;;5006714;28;20476;-72
2022/12/10 07:00:42;;;;;;;1.70;1.50;;;0.50;98.20;;;;;;5022743;28;20470;-72
2022/12/10 07:03:08;;;;;;;1.80;1.70;;;0.40;98.20;;;;;;5016079;28;20480;-72
2022/12/10 07:05:35;;;;;;;1.80;1.70;;;0.40;98.20;;;;;;5023243;28;20478;-71
2022/12/10 07:08:02;;;;;;;1.83;1.70;;;0.40;98.20;;;;;;5014558;28;20490;-71
2022/12/10 07:10:29;;;;;;;1.83;1.70;;;0.50;98.20;;;;;;5017319;28;20463;-71
2022/12/10 07:12:57;;;;;;;1.70;1.60;;;0.50;98.20;;;;;;5015262;28;20495;-70
2022/12/10 07:15:24;;;;;;;1.70;1.60;;;0.50;98.20;;;;;;5021499;28;20452;-72
2022/12/10 07:17:52;;;;;;;1.70;1.60;;;0.50;98.20;;;;;;5007616;28;20515;-72
2022/12/10 07:20:19;;;;;;;3.10;2.90;;;0.50;98.20;;;;;;5018235;28;20476;-72
2022/12/10 07:22:46;;;;;;;1.70;1.60;;;0.50;98.20;;;;;;5009274;28;20515;-72
2022/12/10 07:25:13;;;;;;;1.70;1.60;;;0.50;98.20;;;;;;5019689;28;20804;-71
2022/12/10 07:27:39;;;;;;;2.07;1.87;;;0.40;98.20;;;;;;5017226;28;20498;-71
2022/12/10 07:30:09;;;;;;;1.90;1.80;;;0.40;98.20;;;;;;5022258;28;20488;-71
2022/12/10 07:32:36;;;;;;;1.70;1.60;;;0.40;98.20;;;;;;5030656;28;20909;-72
2022/12/10 07:35:03;;;;;;;1.70;1.60;;;0.40;98.20;;;;;;5022748;28;20731;-72
2022/12/10 07:37:30;;;;;;;1.93;1.73;;;0.40;98.20;;;;;;5029723;28;20482;-71
2022/12/10 07:39:56;;;;;;;1.70;1.60;;;0.50;98.20;;;;;;5016808;28;20476;-71
2022/12/10 07:42:23;;;;;;;1.70;1.60;;;0.40;98.20;;;;;;5025535;28;20493;-71
2022/12/10 07:44:50;;;;;;;1.70;1.60;;;0.40;98.20;;;;;;5018234;28;20484;-72
2022/12/10 07:47:19;;;;;;;1.77;1.67;;;0.40;98.20;;;;;;5025940;28;20478;-71
2022/12/10 07:49:46;;;;;;;1.70;1.60;;;0.40;98.20;;;;;;5021882;28;20539;-72
2022/12/10 07:52:13;;;;;;;1.70;1.60;;;0.40;98.20;;;;;;5010118;28;20479;-72
2022/12/10 07:54:40;;;;;;;1.70;1.60;;;0.30;98.20;;;;;;5017543;28;20483;-71
2022/12/10 07:57:06;;;;;;;1.80;1.70;;;0.30;98.20;;;;;;5012641;28;20489;-72
2022/12/10 07:59:33;;;;;;;1.70;1.60;;;0.30;98.20;;;;;;5021818;28;20483;-72
2022/12/10 08:02:00;;;;;;;1.70;1.60;;;0.30;98.20;;;;;;5020732;28;20503;-73
2022/12/10 08:04:30;;;;;;;1.70;1.50;;;0.40;98.20;;;;;;5023427;28;20465;-73
2022/12/10 08:06:57;;;;;;;1.70;1.60;;;0.40;98.20;;;;;;5012988;28;20475;-73
2022/12/10 08:09:24;;;;;;;1.70;1.60;;;0.40;98.20;;;;;;5027271;28;20479;-71
2022/12/10 08:11:51;;;;;;;1.70;1.60;;;0.40;98.20;;;;;;5012026;28;20846;-74
2022/12/10 08:14:18;;;;;;;1.70;1.60;;;0.40;98.20;;;;;;5016966;28;20463;-74
2022/12/10 08:16:45;;;;;;;1.80;1.70;;;0.40;98.20;;;;;;5011165;28;20483;-71
2022/12/10 08:19:12;;;;;;;1.70;1.60;;;0.40;98.20;;;;;;5017727;28;20611;-72
2022/12/10 08:21:40;;;;;;;1.70;1.60;;;0.40;98.20;;;;;;5011801;28;20502;-72
2022/12/10 08:24:07;;;;;;;1.80;1.70;;;0.50;98.20;;;;;;5023974;28;20463;-73
2022/12/10 08:26:34;;;;;;;1.80;1.70;;;0.50;98.20;;;;;;5014338;28;20487;-72
2022/12/10 08:29:01;;;;;;;1.70;1.60;;;0.50;98.20;;;;;;5024184;28;20479;-74
2022/12/10 08:31:29;;;;;;;1.70;1.60;;;0.50;98.20;;;;;;5011839;28;20479;-74
2022/12/10 08:33:56;;;;;;;1.70;1.60;;;0.50;98.20;;;;;;5023324;28;20464;-74
2022/12/10 08:36:23;;;;;;;1.70;1.60;;;0.50;98.20;;;;;;5006593;28;20502;-73
2022/12/10 08:38:51;;;;;;;1.90;1.70;;;0.40;98.20;;;;;;5014869;28;20479;-74
2022/12/10 08:41:19;;;;;;;1.70;1.60;;;0.40;98.20;;;;;;5013482;28;20561;-74
2022/12/10 08:43:47;;;;;;;1.70;1.60;;;0.40;98.20;;;;;;5020237;28;20468;-73
2022/12/10 08:46:15;;;;;;;1.70;1.53;;;0.40;98.20;;;;;;5011002;28;20479;-73
2022/12/10 08:48:43;;;;;;;1.70;1.60;;;0.50;98.20;;;;;;5024914;28;20864;-75
2022/12/10 08:51:14;;;;;;;1.90;1.70;;;0.50;98.20;;;;;;5006469;28;20573;-73
2022/12/10 08:53:40;;;;;;;2.70;2.50;;;0.40;98.20;;;;;;5020334;28;20506;-72
2022/12/10 08:56:09;;;;;;;1.70;1.60;;;0.40;98.20;;;;;;5007831;28;20771;-73
2022/12/10 08:58:37;;;;;;;1.80;1.70;;;0.40;98.20;;;;;;5023341;28;20672;-72
2022/12/10 09:01:07;;;;;;;1.70;1.60;;;0.50;98.20;;;;;;5007790;28;20455;-72
2022/12/10 09:03:34;;;;;;;1.70;1.60;;;0.50;98.20;;;;;;5013186;28;20522;-72
2022/12/10 09:06:03;;;;;;;1.80;1.70;;;0.50;98.20;;;;;;5002794;28;20491;-74
2022/12/10 09:08:30;;;;;;;1.70;1.60;;;0.50;98.20;;;;;;5033289;28;20484;-73
2022/12/10 09:10:57;;;;;;;1.80;1.70;;;0.50;98.20;;;;;;5008139;28;20468;-71
2022/12/10 09:13:25;;;;;;;1.70;1.50;;;0.50;98.20;;;;;;5024220;28;20769;-73
2022/12/10 09:15:52;;;;;;;1.70;1.60;;;0.50;98.20;;;;;;5006574;28;20466;-73
2022/12/10 09:18:20;;;;;;;2.63;2.43;;;0.50;98.20;;;;;;5022132;28;20462;-72
2022/12/10 09:20:46;;;;;;;1.70;1.60;;;0.50;98.20;;;;;;5010033;28;20456;-73
2022/12/10 09:23:13;;;;;;;1.70;1.60;;;0.50;98.20;;;;;;5021202;28;20475;-72
2022/12/10 09:25:41;;;;;;;1.90;1.70;;;0.50;98.20;;;;;;5018783;28;20495;-73
2022/12/10 09:28:08;;;;;;;1.80;1.70;;;0.60;98.20;;;;;;5011972;28;20483;-75
2022/12/10 09:30:36;;;;;;;1.90;1.70;;;0.60;98.20;;;;;;5021694;28;21262;-74
2022/12/10 09:33:03;;;;;;;1.70;1.60;;;0.60;98.20;;;;;;5012840;28;20486;-71
2022/12/10 09:35:30;;;;;;;1.80;1.70;;;0.60;98.20;;;;;;5017090;28;20992;-72
2022/12/10 09:37:58;;;;;;;1.77;1.67;;;0.60;98.20;;;;;;5015445;28;20487;-72
2022/12/10 09:40:33;;;;;;;1.83;1.70;;;0.60;98.20;;;;;;5020014;28;21197;-72
2022/12/10 09:43:05;;;;;;;1.70;1.60;;;0.60;98.20;;;;;;5017942;28;20516;-73
2022/12/10 09:45:41;;;;;;;1.70;1.60;;;0.50;98.20;;;;;;5021581;28;20712;-73
2022/12/10 09:48:19;;;;;;;3.00;2.80;;;0.50;98.20;;;;;;5028768;28;20488;-72
2022/12/10 09:50:53;;;;;;;1.80;1.70;;;0.50;98.20;;;;;;5015569;28;20861;-73
2022/12/10 09:53:23;;;;;;;1.77;1.63;;;0.50;98.20;;;;;;5025141;28;20464;-73
2022/12/10 09:55:50;;;;;;;1.70;1.60;;;0.60;98.20;;;;;;5005279;28;20459;-73
2022/12/10 09:58:20;;;;;;;1.80;1.70;;;0.70;98.20;;;;;;5033451;28;20496;-73
2022/12/10 10:00:51;;;;;;;1.70;1.50;;;0.70;98.20;;;;;;5011179;28;20463;-73
2022/12/10 10:03:18;;;;;;;1.80;1.70;;;0.70;98.20;;;;;;5020376;28;20499;-73
2022/12/10 10:05:49;;;;;;;1.70;1.60;;;0.70;98.20;;;;;;5022142;28;20488;-73
2022/12/10 10:08:27;;;;;;;1.70;1.60;;;0.70;98.20;;;;;;5010456;28;20483;-73
2022/12/10 10:10:54;;;;;;;1.70;1.60;;;0.70;98.20;;;;;;5005776;28;20467;-73
2022/12/10 10:13:31;;;;;;;1.70;1.60;;;0.80;98.20;;;;;;5024218;28;20459;-72
2022/12/10 10:16:15;;;;;;;1.80;1.67;;;0.80;98.20;;;;;;5005292;28;20827;-72
2022/12/10 10:18:47;;;;;;;1.70;1.50;;;0.90;98.20;;;;;;5025441;28;20952;-72
2022/12/10 10:21:21;;;;;;;1.80;1.60;;;1.00;98.20;;;;;;5010632;28;20566;-72
2022/12/10 10:23:49;;;;;;;1.70;1.50;;;1.10;98.20;;;;;;5022869;28;20477;-76
2022/12/10 10:26:16;;;;;;;1.70;1.50;;;1.10;98.20;;;;;;5014655;28;20878;-73
2022/12/10 10:28:45;;;;;;;1.70;1.50;;;1.10;98.20;;;;;;5033810;28;21145;-73
2022/12/10 10:31:20;;;;;;;1.70;1.50;;;1.10;98.20;;;;;;5010431;28;20561;-71
2022/12/10 10:33:56;;;;;;;1.70;1.50;;;1.20;98.20;;;;;;5010186;28;20471;-74
2022/12/10 10:36:28;;;;;;;1.70;1.60;;;1.30;98.20;;;;;;5016610;28;20479;-73
2022/12/10 10:38:55;;;;;;;1.70;1.50;;;1.30;98.20;;;;;;5031450;28;20486;-73
2022/12/10 10:41:23;;;;;;;1.70;1.50;;;1.30;98.20;;;;;;5013360;28;20858;-73
2022/12/10 10:43:55;;;;;;;1.70;1.50;;;1.40;98.20;;;;;;5024601;28;20814;-73
2022/12/10 10:46:24;;;;;;;1.70;1.50;;;1.40;98.20;;;;;;5011335;28;20467;-73
2022/12/10 10:48:51;;;;;;;1.70;1.60;;;1.40;98.20;;;;;;5018632;28;20483;-73
2022/12/10 10:51:22;;;;;;;1.70;1.50;;;1.40;98.20;;;;;;5013488;28;20485;-73
2022/12/10 10:53:51;;;;;;;1.70;1.50;;;1.40;98.20;;;;;;5022736;28;20520;-73
2022/12/10 10:56:21;;;;;;;1.70;1.50;;;1.40;98.20;;;;;;5011115;28;20541;-73
2022/12/10 10:58:56;;;;;;;1.70;1.50;;;1.50;98.20;;;;;;5023584;28;20493;-73
2022/12/10 11:01:26;;;;;;;1.70;1.50;;;1.50;98.20;;;;;;5008229;28;20475;-73
2022/12/10 11:03:56;;;;;;;1.90;1.70;;;1.50;98.20;;;;;;5021852;28;20643;-73
2022/12/10 11:06:24;;;;;;;1.70;1.50;;;1.50;98.20;;;;;;5012927;28;20486;-73
2022/12/10 11:08:55;;;;;;;1.70;1.50;;;1.50;98.20;;;;;;5022113;28;20484;-73
2022/12/10 11:11:26;;;;;;;1.70;1.50;;;1.40;98.20;;;;;;5013385;28;20933;-73
2022/12/10 11:13:52;;;;;;;1.70;1.50;;;1.40;98.20;;;;;;5028020;28;20462;-73
2022/12/10 11:16:22;;;;;;;1.70;1.50;;;1.50;98.20;;;;;;5014537;28;21023;-73
2022/12/10 11:19:01;;;;;;;1.70;1.50;;;1.50;98.20;;;;;;5030215;28;20483;-73
2022/12/10 11:21:29;;;;;;;1.70;1.47;;;1.60;98.20;;;;;;5009310;28;21182;-72
2022/12/10 11:23:58;;;;;;;1.70;1.50;;;1.60;98.20;;;;;;5022739;28;20464;-73
2022/12/10 11:26:50;;;;;;;1.70;1.50;;;1.70;98.20;;;;;;5009550;28;20474;-72
2022/12/10 11:29:33;;;;;;;1.80;1.70;;;1.70;98.20;;;;;;5022867;28;20483;-73
2022/12/10 11:32:26;;;;;;;1.70;1.60;;;1.70;98.20;;;;;;5008917;28;20487;-73
2022/12/10 11:35:07;;;;;;;1.70;1.50;;;1.80;98.20;;;;;;5018702;28;21048;-73
2022/12/10 11:37:39;;;;;;;1.70;1.53;;;1.80;98.20;;;;;;5015491;28;20484;-73
2022/12/10 11:40:39;;;;;;;1.70;1.50;;;1.80;98.20;;;;;;5015077;28;20488;-72
2022/12/10 11:43:20;;;;;;;1.70;1.60;;;1.80;98.20;;;;;;5014637;28;20605;-72
2022/12/10 11:45:59;;;;;;;1.70;1.60;;;1.80;98.20;;;;;;5003113;28;20498;-73
2022/12/10 11:48:35;;;;;;;1.70;1.53;;;1.80;98.20;;;;;;5037379;28;20623;-72
2022/12/10 11:51:06;;;;;;;1.70;1.50;;;1.80;98.20;;;;;;5014384;28;20470;-73
2022/12/10 11:53:55;;;;;;;1.70;1.50;;;1.80;98.20;;;;;;5038685;28;20813;-73
2022/12/10 11:56:26;;;;;;;1.70;1.40;;;1.80;98.20;;;;;;5018800;28;20470;-72
2022/12/10 11:59:13;;;;;;;4.87;3.20;;;1.80;98.20;;;;;;5031941;28;20503;-71
2022/12/10 12:01:54;;;;;;;1.70;1.50;;;1.80;98.20;;;;;;5005879;28;21026;-72
2022/12/10 12:04:34;;;;;;;1.70;1.50;;;1.80;98.20;;;;;;5022908;28;20463;-71
2022/12/10 12:07:32;;;;;;;1.83;1.70;;;1.80;98.20;;;;;;5013423;28;20483;-72
2022/12/10 12:10:29;;;;;;;1.70;1.50;;;1.80;98.20;;;;;;5019843;28;20483;-72
2022/12/10 12:13:00;;;;;;;1.70;1.50;;;1.80;98.20;;;;;;5008978;28;20688;-72
2022/12/10 12:15:32;;;;;;;1.70;1.60;;;1.80;98.20;;;;;;5016169;28;20462;-72
2022/12/10 12:18:03;;;;;;;1.80;1.67;;;1.90;98.20;;;;;;5033689;28;20494;-72
2022/12/10 12:20:33;;;;;;;1.70;1.40;;;1.90;98.20;;;;;;5015600;28;20691;-72
2022/12/10 12:23:05;;;;;;;1.70;1.50;;;1.90;98.20;;;;;;5012107;28;20501;-71
2022/12/10 12:25:37;;;;;;;1.70;1.60;;;1.90;98.20;;;;;;5013438;28;20772;-71
2022/12/10 12:28:12;;;;;;;1.67;1.50;;;1.90;98.20;;;;;;5021761;28;20483;-72
2022/12/10 12:30:42;;;;;;;1.70;1.50;;;1.90;98.20;;;;;;5012347;28;20752;-72
2022/12/10 12:33:15;;;;;;;1.70;1.50;;;1.90;98.20;;;;;;5011095;28;20491;-72
2022/12/10 12:35:45;;;;;;;1.70;1.60;;;1.90;98.20;;;;;;5009528;28;20566;-73
2022/12/10 12:38:29;;;;;;;1.67;1.43;;;1.90;98.20;;;;;;5006683;28;20472;-72
2022/12/10 12:41:03;;;;;;;1.70;1.50;;;1.90;98.20;;;;;;5003122;28;20769;-73
2022/12/10 12:43:40;;;;;;;1.70;1.40;;;2.00;98.20;;;;;;5028564;28;20988;-72
2022/12/10 12:46:15;;;;;;;1.70;1.50;;;2.00;98.20;;;;;;5001667;28;20495;-72
2022/12/10 12:48:50;;;;;;;1.70;1.50;;;1.90;98.20;;;;;;5013603;28;20490;-73
2022/12/10 12:51:21;;;;;;;1.70;1.40;;;1.90;98.20;;;;;;5002860;28;20490;-72
2022/12/10 12:53:49;;;;;;;1.70;1.60;;;1.90;98.20;;;;;;5015739;28;20463;-72
2022/12/10 12:56:26;;;;;;;1.70;1.60;;;1.90;98.20;;;;;;5009511;28;20580;-72
2022/12/10 12:59:03;;;;;;;1.70;1.50;;;2.00;98.20;;;;;;5019224;28;20487;-72
2022/12/10 13:01:35;;;;;;;1.67;1.40;;;2.00;98.20;;;;;;5008228;28;20517;-72
2022/12/10 13:04:03;;;;;;;1.70;1.47;;;2.00;98.20;;;;;;5025013;28;20851;-72
2022/12/10 13:06:32;;;;;;;1.70;1.60;;;2.00;98.20;;;;;;5011784;28;20735;-72
2022/12/10 13:09:18;;;;;;;1.63;1.43;;;2.00;98.20;;;;;;5021429;28;20512;-72
2022/12/10 13:11:47;;;;;;;1.70;1.40;;;2.00;98.20;;;;;;5000821;28;20493;-72
2022/12/10 13:14:19;;;;;;;1.70;1.57;;;2.10;98.20;;;;;;5013812;28;20528;-72
2022/12/10 13:17:27;;;;;;;1.70;1.50;;;2.10;98.20;;;;;;5003352;28;20573;-72
2022/12/10 13:20:15;;;;;;;1.63;1.40;;;2.20;98.20;;;;;;5009882;28;20488;-72